Time;durP1;ratioP1;P1;durP2;ratioP2;P2;SDS_P1;SDS_P2;PMS_P1;PMS_P2;Temp;Humidity;BMP_temperature;BMP_pressure;BME280_temperature;BME280_humidity;BME280_pressure;Samples;Min_cycle;Max_cycle;Signal;HPM_P1;HPM_P2
2022/02/17 00:01:04;;;;;;;0.70;0.70;;;;;;;9.47;96.19;96060.00;4855283;29;20054;-87
2022/02/17 00:03:30;;;;;;;0.73;0.50;;;;;;;9.61;95.88;96095.25;4840966;29;20137;-86
2022/02/17 00:05:56;;;;;;;0.40;0.40;;;;;;;9.41;95.86;96081.75;4841520;29;20029;-86
2022/02/17 00:08:22;;;;;;;0.85;0.60;;;;;;;9.58;96.13;96106.56;4840150;29;20129;-87
2022/02/17 00:10:47;;;;;;;0.40;0.40;;;;;;;9.61;95.69;96121.88;4841170;29;20364;-86
2022/02/17 00:13:13;;;;;;;0.80;0.73;;;;;;;9.60;96.04;96108.91;4841456;29;20036;-86
2022/02/17 00:15:38;;;;;;;1.17;0.77;;;;;;;9.62;95.92;96133.34;4851001;29;20033;-86
2022/02/17 00:18:21;;;;;;;0.93;0.73;;;;;;;9.61;96.12;96121.88;4844204;29;20053;-86
2022/02/17 00:20:53;;;;;;;0.68;0.68;;;;;;;9.59;95.52;96117.97;4841595;29;20061;-87
2022/02/17 00:23:18;;;;;;;0.50;0.50;;;;;;;9.68;95.60;96130.22;4826158;29;20083;-86
2022/02/17 00:25:44;;;;;;;5.28;0.60;;;;;;;9.66;95.32;96153.72;4841564;29;20026;-86
2022/02/17 00:28:09;;;;;;;0.90;0.80;;;;;;;9.65;95.33;96148.72;4841248;29;20073;-86
2022/02/17 00:30:35;;;;;;;0.70;0.70;;;;;;;9.60;95.19;96151.50;4825242;29;20547;-87
2022/02/17 00:33:00;;;;;;;0.70;0.70;;;;;;;9.61;95.06;96153.09;4825584;29;20045;-86
2022/02/17 00:35:25;;;;;;;1.33;0.80;;;;;;;9.67;94.41;96155.31;4825757;29;20098;-86
2022/02/17 00:37:51;;;;;;;0.85;0.80;;;;;;;9.67;94.26;96175.81;4838934;29;20475;-86
2022/02/17 00:40:17;;;;;;;0.70;0.70;;;;;;;9.69;93.72;96189.59;4839138;29;20049;-87
2022/02/17 00:42:42;;;;;;;1.33;1.00;;;;;;;9.67;93.34;96237.06;4825382;29;20049;-86
2022/02/17 00:45:08;;;;;;;5.18;1.33;;;;;;;9.60;93.04;96202.88;4823075;29;20041;-86
2022/02/17 00:47:33;;;;;;;2.00;1.35;;;;;;;9.58;92.10;96202.41;4809097;29;20030;-86
2022/02/17 00:49:59;;;;;;;2.75;1.10;;;;;;;9.52;91.72;96229.47;4824376;29;20086;-86
2022/02/17 00:52:26;;;;;;;1.30;1.20;;;;;;;9.67;90.49;96237.88;4824598;29;20032;-86
2022/02/17 00:54:51;;;;;;;2.22;1.30;;;;;;;9.48;89.47;96215.97;4821842;29;20033;-87
2022/02/17 00:57:17;;;;;;;1.40;1.30;;;;;;;9.55;89.13;96220.84;4838974;29;20037;-86
2022/02/17 00:59:42;;;;;;;3.10;1.40;;;;;;;9.67;89.48;96248.50;4839419;29;20387;-86
2022/02/17 01:02:11;;;;;;;2.03;1.27;;;;;;;9.62;88.37;96232.66;4823836;29;20086;-86
2022/02/17 01:04:36;;;;;;;1.73;1.30;;;;;;;9.61;88.02;96222.31;4838693;29;20038;-86
2022/02/17 01:07:02;;;;;;;1.73;1.23;;;;;;;9.60;87.71;96207.41;4823893;29;20037;-86
2022/02/17 01:09:27;;;;;;;2.33;1.25;;;;;;;9.53;87.50;96210.53;4839796;29;20030;-86
2022/02/17 01:11:52;;;;;;;1.50;1.23;;;;;;;9.49;87.29;96196.25;4839318;29;20026;-86
2022/02/17 01:14:18;;;;;;;1.35;1.20;;;;;;;9.52;86.79;96208.94;4839703;29;20037;-86
2022/02/17 01:16:43;;;;;;;4.22;1.08;;;;;;;9.50;86.20;96223.66;4839859;29;20046;-86
2022/02/17 01:19:08;;;;;;;1.08;1.08;;;;;;;9.44;86.43;96219.53;4824830;29;20138;-85
2022/02/17 01:21:34;;;;;;;3.58;1.38;;;;;;;9.46;86.22;96212.03;4823577;29;20109;-86
2022/02/17 01:23:59;;;;;;;2.13;1.10;;;;;;;9.38;86.13;96212.78;4843872;29;20028;-86
2022/02/17 01:26:24;;;;;;;3.30;1.38;;;;;;;9.42;85.97;96205.75;4835784;29;20501;-86
2022/02/17 01:28:50;;;;;;;1.85;1.30;;;;;;;9.41;86.08;96204.19;4837519;29;20125;-86
2022/02/17 01:31:17;;;;;;;2.75;1.10;;;;;;;9.36;86.17;96185.69;4838691;29;20036;-86
2022/02/17 01:33:42;;;;;;;2.22;1.55;;;;;;;9.39;85.54;96175.19;4838724;29;20751;-86
2022/02/17 01:36:09;;;;;;;1.20;1.10;;;;;;;9.43;84.93;96212.66;4837953;29;20048;-86
2022/02/17 01:38:40;;;;;;;2.63;1.15;;;;;;;9.35;84.89;96192.13;4838697;29;20110;-86
2022/02/17 01:41:07;;;;;;;1.13;0.98;;;;;;;9.35;85.39;96190.22;4853961;29;20327;-86
2022/02/17 01:43:34;;;;;;;3.00;1.40;;;;;;;9.40;85.25;96194.63;4838533;29;20118;-86
2022/02/17 01:46:00;;;;;;;2.65;1.08;;;;;;;9.37;85.47;96164.06;4823752;29;20041;-85
2022/02/17 01:48:25;;;;;;;2.30;0.90;;;;;;;9.45;85.54;96181.19;4836856;29;20045;-85
2022/02/17 01:50:51;;;;;;;2.15;1.30;;;;;;;9.30;85.91;96161.09;4853384;29;20021;-85
2022/02/17 01:53:17;;;;;;;2.95;1.10;;;;;;;9.25;86.15;96165.75;4838423;29;20038;-85
2022/02/17 01:55:48;;;;;;;2.53;1.50;;;;;;;9.29;86.62;96182.66;4837579;29;20117;-84
2022/02/17 01:58:15;;;;;;;2.95;1.20;;;;;;;9.32;85.80;96248.63;4837269;29;20034;-84
2022/02/17 02:00:41;;;;;;;5.50;1.45;;;;;;;9.35;86.78;96243.47;4836461;29;20029;-84
2022/02/17 02:03:08;;;;;;;1.58;1.40;;;;;;;9.30;86.72;96230.28;4833576;29;20045;-83
2022/02/17 02:05:33;;;;;;;1.67;1.20;;;;;;;9.38;87.00;96244.72;4819162;29;20509;-84
2022/02/17 02:07:59;;;;;;;5.88;1.52;;;;;;;9.33;87.04;96242.19;4822040;29;20034;-84
2022/02/17 02:10:26;;;;;;;3.67;1.83;;;;;;;9.10;87.18;96212.16;4837483;29;20129;-84
2022/02/17 02:12:54;;;;;;;13.57;1.77;;;;;;;9.03;87.46;96195.81;4838595;29;20034;-84
2022/02/17 02:15:19;;;;;;;6.40;1.50;;;;;;;9.20;87.11;96240.38;4840464;29;20239;-84
2022/02/17 02:17:45;;;;;;;7.63;3.08;;;;;;;9.05;87.39;96223.69;4851151;29;20090;-84
2022/02/17 02:20:20;;;;;;;2.95;1.23;;;;;;;9.14;87.47;96210.44;4822202;29;20034;-85
2022/02/17 02:22:46;;;;;;;2.40;1.35;;;;;;;9.15;88.09;96221.88;4822607;29;20030;-85
2022/02/17 02:25:12;;;;;;;5.32;1.65;;;;;;;9.14;87.91;96199.00;4851990;29;20029;-85
2022/02/17 02:27:37;;;;;;;4.70;1.50;;;;;;;9.08;88.16;96190.38;4850338;29;20479;-85
2022/02/17 02:30:05;;;;;;;6.45;1.58;;;;;;;9.14;87.91;96180.38;4836399;29;20125;-86
2022/02/17 02:32:31;;;;;;;1.40;1.30;;;;;;;9.03;87.89;96164.69;4837282;29;20053;-86
2022/02/17 02:34:56;;;;;;;2.65;1.40;;;;;;;8.90;87.89;96160.22;4821164;29;20117;-85
2022/02/17 02:37:21;;;;;;;2.72;1.40;;;;;;;9.05;87.57;96181.13;4851492;29;20045;-86
2022/02/17 02:39:47;;;;;;;4.88;1.85;;;;;;;9.05;87.68;96159.06;4837229;29;20042;-86
2022/02/17 02:42:13;;;;;;;4.63;1.58;;;;;;;9.01;87.89;96196.13;4837905;29;20121;-86
2022/02/17 02:44:38;;;;;;;4.60;1.80;;;;;;;9.02;87.56;96216.31;4821540;29;20046;-86
2022/02/17 02:47:04;;;;;;;3.78;2.53;;;;;;;8.92;87.70;96166.03;4820649;29;20089;-86
2022/02/17 02:49:29;;;;;;;7.63;2.33;;;;;;;8.92;88.22;96194.50;4822593;29;20042;-86
2022/02/17 02:51:55;;;;;;;3.88;1.50;;;;;;;8.89;88.07;96192.41;4822907;29;20033;-86
2022/02/17 02:54:20;;;;;;;5.03;1.73;;;;;;;8.91;88.18;96207.00;4823335;29;20116;-86
2022/02/17 02:56:45;;;;;;;2.92;1.55;;;;;;;8.92;88.00;96221.09;4837925;29;20060;-86
2022/02/17 02:59:11;;;;;;;8.60;2.50;;;;;;;8.81;87.81;96209.09;4821277;29;20591;-85
2022/02/17 03:01:36;;;;;;;3.45;1.88;;;;;;;8.90;88.06;96234.69;4837286;29;20390;-85
2022/02/17 03:04:01;;;;;;;5.53;1.63;;;;;;;8.89;87.99;96254.41;4820845;29;20030;-86
2022/02/17 03:06:30;;;;;;;7.47;1.88;;;;;;;8.62;87.74;96219.13;4837298;29;20578;-86
2022/02/17 03:08:57;;;;;;;7.25;2.50;;;;;;;8.84;87.88;96275.81;4836109;29;20086;-86
2022/02/17 03:11:22;;;;;;;5.32;1.83;;;;;;;8.87;88.04;96296.47;4838264;29;20502;-86
2022/02/17 03:13:47;;;;;;;3.97;2.30;;;;;;;8.77;87.77;96279.94;4821659;29;20068;-86
2022/02/17 03:16:13;;;;;;;4.55;1.70;;;;;;;8.76;87.71;96286.34;4823624;29;20055;-86
2022/02/17 03:18:38;;;;;;;5.55;1.67;;;;;;;8.77;88.01;96277.28;4824795;29;20098;-86
2022/02/17 03:21:04;;;;;;;8.95;2.03;;;;;;;8.56;87.67;96233.63;4836939;29;20034;-86
2022/02/17 03:23:29;;;;;;;8.32;1.90;;;;;;;8.74;87.80;96217.50;4854581;29;20466;-87
2022/02/17 03:25:57;;;;;;;4.55;1.83;;;;;;;8.72;87.78;96237.50;4822977;29;20467;-86
2022/02/17 03:28:22;;;;;;;1.63;1.52;;;;;;;8.55;88.06;96246.13;4840871;29;20082;-86
2022/02/17 03:30:47;;;;;;;4.50;1.60;;;;;;;8.70;87.41;96280.34;4841758;29;20030;-87
2022/02/17 03:33:13;;;;;;;5.95;2.13;;;;;;;8.70;88.09;96300.84;4825010;29;20053;-86
2022/02/17 03:35:38;;;;;;;4.30;2.65;;;;;;;8.63;87.61;96332.34;4839956;29;20041;-86
2022/02/17 03:38:04;;;;;;;3.05;1.42;;;;;;;8.44;87.38;96332.47;4824868;29;20193;-85
2022/02/17 03:40:29;;;;;;;2.58;1.70;;;;;;;8.52;87.56;96426.72;4841278;29;20502;-85
2022/02/17 03:42:54;;;;;;;4.00;1.40;;;;;;;8.64;87.26;96478.31;4839917;29;20133;-85
2022/02/17 03:45:20;;;;;;;4.63;1.80;;;;;;;8.61;87.92;96436.34;4856136;29;20086;-85
2022/02/17 03:47:46;;;;;;;7.68;2.03;;;;;;;8.61;87.06;96433.69;4824219;29;20098;-86
2022/02/17 03:50:11;;;;;;;11.65;1.92;;;;;;;8.56;86.79;96423.13;4825973;29;20432;-86
2022/02/17 03:52:38;;;;;;;9.50;2.05;;;;;;;8.46;87.02;96394.09;4825404;29;20038;-87
2022/02/17 03:55:04;;;;;;;10.40;2.00;;;;;;;8.48;87.02;96439.78;4828180;29;20056;-87
2022/02/17 03:57:29;;;;;;;6.72;2.13;;;;;;;8.45;86.29;96437.72;4840994;29;20321;-87
2022/02/17 03:59:55;;;;;;;12.70;2.67;;;;;;;8.46;86.07;96454.44;4839876;29;20036;-87
2022/02/17 04:02:20;;;;;;;10.50;2.10;;;;;;;8.41;86.66;96438.59;4826023;29;20441;-87
2022/02/17 04:04:45;;;;;;;10.07;2.47;;;;;;;8.40;86.24;96431.69;4841265;29;20038;-86
2022/02/17 04:07:11;;;;;;;14.00;2.63;;;;;;;8.34;86.02;96427.56;4824777;29;20033;-86
2022/02/17 04:09:36;;;;;;;13.82;2.83;;;;;;;8.31;85.83;96447.53;4840488;29;20029;-86
2022/02/17 04:12:02;;;;;;;9.48;2.70;;;;;;;8.29;84.85;96407.97;4840681;29;20026;-87
2022/02/17 04:14:28;;;;;;;13.65;3.42;;;;;;;8.16;85.21;96358.22;4825687;29;20042;-87
2022/02/17 04:16:56;;;;;;;9.75;3.03;;;;;;;8.25;84.63;96369.78;4852484;29;20029;-87
2022/02/17 04:19:21;;;;;;;10.73;2.97;;;;;;;8.24;84.48;96376.13;4825713;29;20502;-86
2022/02/17 04:21:47;;;;;;;12.73;3.28;;;;;;;8.10;84.01;96377.97;4841137;29;20042;-87
2022/02/17 04:24:12;;;;;;;14.27;3.47;;;;;;;8.09;83.36;96389.69;4826420;29;20037;-86
2022/02/17 04:26:37;;;;;;;12.07;2.92;;;;;;;8.14;83.89;96388.81;4825444;29;20450;-87
2022/02/17 04:29:03;;;;;;;12.32;3.55;;;;;;;8.10;83.99;96395.81;4824635;29;20054;-86
2022/02/17 04:31:28;;;;;;;15.98;3.60;;;;;;;8.11;84.10;96427.38;4823551;29;20380;-86
2022/02/17 04:33:54;;;;;;;12.40;3.20;;;;;;;8.10;83.40;96499.41;4825716;29;20460;-87
2022/02/17 04:36:19;;;;;;;13.80;3.60;;;;;;;8.08;83.84;96485.63;4840840;29;20076;-87
2022/02/17 04:38:45;;;;;;;12.32;3.47;;;;;;;8.00;83.08;96510.19;4840788;29;20034;-87
2022/02/17 04:43:55;;;;;;;5.25;1.77;;;;;;;7.90;83.94;96531.59;4836344;29;20045;-86
2022/02/17 04:46:20;;;;;;;5.63;1.67;;;;;;;7.91;83.35;96536.59;4839050;29;20125;-85
2022/02/17 04:48:45;;;;;;;9.82;1.73;;;;;;;7.88;82.63;96528.44;4839689;29;20034;-86
2022/02/17 04:51:11;;;;;;;9.50;2.35;;;;;;;7.85;82.83;96539.63;4825682;29;20026;-86
2022/02/17 04:53:36;;;;;;;11.82;1.73;;;;;;;7.83;82.85;96500.06;4823762;29;20143;-86
2022/02/17 04:56:02;;;;;;;5.05;1.60;;;;;;;7.75;82.27;96510.56;4841057;29;20037;-86
2022/02/17 04:58:28;;;;;;;2.63;1.52;;;;;;;7.55;82.97;96475.25;4840153;29;20029;-87
2022/02/17 05:00:54;;;;;;;5.80;2.38;;;;;;;7.68;83.13;96534.00;4826029;29;20049;-86
2022/02/17 05:03:23;;;;;;;6.80;2.03;;;;;;;7.68;82.92;96539.31;4841941;29;20041;-86
2022/02/17 05:05:52;;;;;;;9.10;2.92;;;;;;;7.64;83.26;96565.66;4840173;29;20068;-86
2022/02/17 05:08:18;;;;;;;6.72;2.28;;;;;;;7.63;83.18;96595.13;4825364;29;20038;-86
2022/02/17 05:10:43;;;;;;;9.30;1.83;;;;;;;7.46;83.63;96526.59;4856637;29;20030;-86
2022/02/17 05:13:09;;;;;;;5.75;2.05;;;;;;;7.50;83.41;96591.31;4829425;29;20041;-86
2022/02/17 05:15:36;;;;;;;4.07;2.05;;;;;;;7.26;83.60;96587.88;4839524;29;20525;-86
2022/02/17 05:18:03;;;;;;;11.70;2.55;;;;;;;7.21;83.62;96582.59;4823635;29;20144;-86
2022/02/17 05:20:28;;;;;;;10.90;2.25;;;;;;;7.36;83.11;96636.31;4840931;29;20481;-86
2022/02/17 05:22:53;;;;;;;6.45;2.33;;;;;;;7.31;83.69;96632.94;4839606;29;20049;-86
2022/02/17 05:25:19;;;;;;;5.00;1.92;;;;;;;7.30;83.41;96612.75;4823634;29;20033;-87
2022/02/17 05:27:44;;;;;;;6.00;2.00;;;;;;;7.29;83.45;96605.88;4837890;29;20086;-87
2022/02/17 05:30:10;;;;;;;5.60;1.58;;;;;;;7.27;84.21;96590.22;4839616;29;20398;-87
2022/02/17 05:32:42;;;;;;;7.53;1.92;;;;;;;7.03;83.59;96581.50;4839057;29;20037;-87
2022/02/17 05:35:09;;;;;;;4.45;1.60;;;;;;;7.25;83.87;96604.88;4831401;29;20038;-87
2022/02/17 05:37:35;;;;;;;3.65;1.63;;;;;;;7.00;83.88;96579.41;4840170;29;20036;-87
2022/02/17 05:40:02;;;;;;;10.02;1.95;;;;;;;7.20;83.58;96639.41;4818907;29;20038;-87
2022/02/17 05:42:28;;;;;;;7.93;1.90;;;;;;;7.01;83.89;96657.88;4839497;29;20033;-87
2022/02/17 05:44:53;;;;;;;5.47;1.95;;;;;;;7.16;84.48;96678.97;4823840;29;20034;-87
2022/02/17 05:47:18;;;;;;;8.63;2.35;;;;;;;7.20;84.36;96693.25;4822709;29;20041;-87
2022/02/17 05:49:44;;;;;;;6.38;2.17;;;;;;;7.00;84.11;96650.19;4823875;29;20029;-87
2022/02/17 05:52:09;;;;;;;5.28;1.83;;;;;;;7.16;84.04;96675.53;4823463;29;20232;-87
2022/02/17 05:54:34;;;;;;;6.07;1.90;;;;;;;7.16;84.35;96689.59;4836380;29;20509;-88
2022/02/17 05:57:00;;;;;;;9.25;3.13;;;;;;;7.13;83.92;96702.59;4822677;29;20124;-87
2022/02/17 05:59:25;;;;;;;11.18;2.63;;;;;;;6.90;83.83;96652.94;4853102;29;20041;-87
2022/02/17 06:01:50;;;;;;;6.70;2.03;;;;;;;7.07;84.40;96683.28;4823467;29;20397;-87
2022/02/17 06:04:16;;;;;;;9.55;2.47;;;;;;;6.98;83.90;96671.69;4822721;29;20034;-86
2022/02/17 06:06:41;;;;;;;10.40;2.75;;;;;;;6.86;84.17;96663.31;4841122;29;20037;-87
2022/02/17 06:09:06;;;;;;;9.20;1.90;;;;;;;7.02;83.88;96678.03;4837662;29;20044;-87
2022/02/17 06:11:32;;;;;;;11.43;2.67;;;;;;;7.04;84.40;96675.88;4833937;29;20098;-87
2022/02/17 06:13:57;;;;;;;10.45;2.03;;;;;;;7.03;84.38;96676.97;4838252;29;20061;-87
2022/02/17 06:16:23;;;;;;;14.77;2.67;;;;;;;7.00;83.96;96656.31;4837660;29;20034;-87
2022/02/17 06:18:49;;;;;;;9.55;2.80;;;;;;;6.85;83.80;96664.38;4840321;29;20032;-87
2022/02/17 06:21:14;;;;;;;14.45;2.80;;;;;;;6.90;84.17;96672.31;4823709;29;20038;-87
2022/02/17 06:23:39;;;;;;;8.48;2.25;;;;;;;6.89;83.87;96676.03;4838840;29;20497;-86
2022/02/17 06:26:07;;;;;;;17.30;3.47;;;;;;;7.01;83.31;96710.13;4822728;29;20029;-86
2022/02/17 06:28:32;;;;;;;16.35;2.92;;;;;;;6.96;84.35;96710.97;4838190;29;20394;-87
2022/02/17 06:30:58;;;;;;;8.13;3.13;;;;;;;6.92;84.58;96722.41;4839126;29;20083;-87
2022/02/17 06:33:23;;;;;;;14.10;2.53;;;;;;;7.00;83.96;96733.22;4839105;29;20042;-87
2022/02/17 06:35:48;;;;;;;13.00;3.58;;;;;;;7.01;84.35;96739.31;4839625;29;20514;-86
2022/02/17 06:38:14;;;;;;;11.38;3.65;;;;;;;6.92;83.93;96722.41;4826041;29;20030;-86
2022/02/17 06:40:39;;;;;;;14.75;3.08;;;;;;;6.81;84.12;96722.47;4807992;29;20038;-86
2022/02/17 06:43:11;;;;;;;12.98;3.70;;;;;;;6.99;84.32;96725.53;4823465;29;20197;-87
2022/02/17 06:45:39;;;;;;;12.95;3.53;;;;;;;6.99;84.64;96782.00;4839149;29;20041;-86
2022/02/17 06:48:06;;;;;;;19.15;3.38;;;;;;;6.77;83.96;96728.63;4853254;29;20026;-87
2022/02/17 06:50:32;;;;;;;17.92;3.25;;;;;;;6.78;83.05;96754.03;4824164;29;20033;-87
2022/02/17 06:52:58;;;;;;;14.68;3.00;;;;;;;6.89;83.33;96775.97;4827377;29;20482;-87
2022/02/17 06:55:24;;;;;;;13.57;3.47;;;;;;;6.93;83.56;96772.50;4844338;29;20109;-87
2022/02/17 06:57:49;;;;;;;13.35;2.65;;;;;;;6.93;83.63;96771.69;4842342;29;20037;-87
2022/02/17 07:00:15;;;;;;;8.35;2.55;;;;;;;6.91;83.03;96805.66;4826306;29;20491;-87
2022/02/17 07:02:54;;;;;;;9.82;2.55;;;;;;;6.93;83.05;96806.97;4843543;29;20486;-87
2022/02/17 07:05:21;;;;;;;15.88;3.13;;;;;;;6.93;83.15;96830.84;4843708;29;20026;-87
2022/02/17 07:07:47;;;;;;;13.27;3.22;;;;;;;6.91;83.02;96845.44;4844473;29;20490;-87
2022/02/17 07:10:13;;;;;;;14.73;3.33;;;;;;;6.87;83.08;96821.34;4827167;29;20034;-87
2022/02/17 07:12:43;;;;;;;12.57;4.82;;;;;;;6.71;83.45;96780.88;4827281;29;20034;-87
2022/02/17 07:15:11;;;;;;;10.93;3.13;;;;;;;6.76;83.08;96795.94;4857127;29;20034;-88
2022/02/17 07:17:37;;;;;;;9.38;2.40;;;;;;;6.90;82.89;96830.59;4827150;29;20072;-87
2022/02/17 07:20:03;;;;;;;15.25;3.20;;;;;;;6.76;83.42;96803.91;4826559;29;20044;-88
2022/02/17 07:22:28;;;;;;;8.38;2.33;;;;;;;6.74;83.46;96801.53;4840705;29;20034;-88
2022/02/17 07:24:56;;;;;;;15.10;3.35;;;;;;;6.88;82.73;96838.81;4842995;29;20469;-87
2022/02/17 07:27:21;;;;;;;8.88;2.60;;;;;;;6.81;83.00;96830.41;4841367;29;20042;-87
2022/02/17 07:29:47;;;;;;;14.63;3.58;;;;;;;6.88;83.02;96830.09;4840656;29;20044;-87
2022/02/17 07:32:13;;;;;;;8.60;2.83;;;;;;;6.81;84.19;96823.22;4828045;29;20045;-88
2022/02/17 07:34:38;;;;;;;9.90;2.80;;;;;;;6.67;83.58;96797.59;4841862;29;20026;-87
2022/02/17 07:37:04;;;;;;;11.10;3.08;;;;;;;6.61;83.12;96782.78;4857083;29;20030;-87
2022/02/17 07:39:29;;;;;;;13.90;2.67;;;;;;;6.76;83.35;96811.84;4831438;29;20121;-87
2022/02/17 07:41:55;;;;;;;13.75;3.47;;;;;;;6.70;83.43;96786.44;4826867;29;20387;-87
2022/02/17 07:44:25;;;;;;;10.60;3.13;;;;;;;6.89;83.49;96816.56;4841234;29;20125;-87
2022/02/17 07:46:51;;;;;;;15.68;3.13;;;;;;;6.93;83.41;96814.13;4826233;29;20137;-87
2022/02/17 07:49:16;;;;;;;12.82;4.22;;;;;;;6.65;83.48;96808.47;4825072;29;20038;-87
2022/02/17 07:51:43;;;;;;;14.77;3.63;;;;;;;6.71;83.35;96862.25;4860041;29;20044;-87
2022/02/17 07:54:08;;;;;;;14.80;3.75;;;;;;;6.94;84.20;96922.59;4810269;29;20129;-86
2022/02/17 07:56:34;;;;;;;19.77;3.13;;;;;;;6.94;83.29;96927.13;4837828;29;20548;-86
2022/02/17 07:58:59;;;;;;;14.90;4.00;;;;;;;6.79;83.17;96835.94;4824780;29;20085;-86
2022/02/17 08:01:25;;;;;;;14.00;3.10;;;;;;;6.86;83.11;96891.34;4826335;29;20129;-87
2022/02/17 08:03:50;;;;;;;18.45;3.30;;;;;;;6.87;83.19;96923.94;4808322;29;20070;-87
2022/02/17 08:06:16;;;;;;;8.13;2.58;;;;;;;6.67;83.31;96916.88;4840148;29;20527;-87
2022/02/17 08:08:47;;;;;;;12.00;3.30;;;;;;;6.79;83.44;96920.03;4808480;29;20990;-87
2022/02/17 08:11:13;;;;;;;6.70;2.30;;;;;;;6.79;83.15;96930.63;4811418;29;20376;-87
2022/02/17 08:13:38;;;;;;;10.85;2.20;;;;;;;6.76;82.45;96941.75;4854868;29;20041;-87
2022/02/17 08:16:03;;;;;;;9.38;2.08;;;;;;;6.59;82.55;96915.59;4807400;29;20033;-87
2022/02/17 08:18:29;;;;;;;9.07;1.88;;;;;;;6.77;82.13;96933.53;4827432;29;20042;-87
2022/02/17 08:20:54;;;;;;;7.60;1.55;;;;;;;6.74;81.62;96955.28;4826262;29;20053;-87
2022/02/17 08:23:19;;;;;;;5.20;1.38;;;;;;;6.75;81.74;96953.41;4817162;29;20030;-86
2022/02/17 08:25:45;;;;;;;7.55;2.00;;;;;;;6.75;81.31;96971.97;4837716;29;20476;-86
2022/02/17 08:28:10;;;;;;;5.00;1.17;;;;;;;6.52;81.53;96949.53;4841635;29;20124;-87
2022/02/17 08:30:36;;;;;;;4.70;1.23;;;;;;;6.76;80.99;96984.97;4841156;29;20026;-87
2022/02/17 08:33:03;;;;;;;7.05;1.55;;;;;;;6.63;81.18;96974.94;4825938;29;20069;-86
2022/02/17 08:35:30;;;;;;;10.57;2.15;;;;;;;6.76;80.92;97000.09;4854066;29;20117;-86
2022/02/17 08:38:00;;;;;;;7.70;2.30;;;;;;;6.78;80.96;97009.38;4852690;29;20482;-87
2022/02/17 08:40:27;;;;;;;6.43;1.48;;;;;;;6.75;81.40;96995.84;4840435;29;20509;-87
2022/02/17 08:42:52;;;;;;;6.85;1.63;;;;;;;6.64;81.60;96999.59;4839748;29;20022;-87
2022/02/17 08:45:18;;;;;;;8.90;1.80;;;;;;;6.78;80.99;97043.84;4822047;29;20391;-87
2022/02/17 08:47:43;;;;;;;4.53;1.52;;;;;;;6.80;80.41;97039.06;4822963;29;20033;-86
2022/02/17 08:50:09;;;;;;;6.50;1.90;;;;;;;6.80;80.73;97059.47;4823370;29;20036;-86
2022/02/17 08:52:36;;;;;;;4.65;1.75;;;;;;;6.76;80.77;97042.50;4838786;29;20048;-85
2022/02/17 08:55:02;;;;;;;6.47;1.80;;;;;;;6.75;81.43;97038.25;4837986;29;20038;-87
2022/02/17 09:00:15;;;;;;;4.45;2.17;;;;;;;6.45;80.68;97030.34;4836018;29;20038;-87
2022/02/17 09:02:44;;;;;;;10.75;3.17;;;;;;;6.45;80.74;97025.84;4851647;29;20113;-87
2022/02/17 09:05:09;;;;;;;11.98;2.80;;;;;;;6.58;80.54;97053.66;4841957;29;20129;-87
2022/02/17 09:07:38;;;;;;;7.82;2.30;;;;;;;6.76;80.63;97093.69;4839430;29;20191;-87
2022/02/17 09:10:04;;;;;;;3.10;1.52;;;;;;;6.60;80.78;97072.72;4825400;29;20494;-87
2022/02/17 09:12:31;;;;;;;10.23;2.00;;;;;;;6.64;81.27;97085.19;4839501;29;20037;-87
2022/02/17 09:14:57;;;;;;;9.82;2.55;;;;;;;6.69;80.50;97066.63;4838561;29;20521;-86
2022/02/17 09:18:19;;;;;;;;;;;;;;;;;;;;;
2022/02/17 09:24:22;;;;;;;7.07;2.28;;;;;;;6.64;80.06;97077.25;4817975;29;20054;-86
2022/02/17 09:26:58;;;;;;;9.20;2.45;;;;;;;6.52;80.63;97065.31;4849168;29;20049;-86
2022/02/17 09:29:40;;;;;;;18.50;2.92;;;;;;;6.75;79.90;97104.53;4825942;29;20060;-86
2022/02/17 09:32:15;;;;;;;4.82;1.90;;;;;;;6.66;80.20;97080.41;4839886;29;20606;-86
2022/02/17 09:47:48;;;;;;;11.57;3.03;;;;;;;6.68;79.83;97082.81;4840601;29;20497;-86
2022/02/17 09:51:53;;;;;;;12.75;3.70;;;;;;;7.04;80.39;97163.91;4844456;29;20079;-86
2022/02/17 09:54:00;;;;;;;16.63;3.13;;;;;;;6.87;80.58;97146.69;4832233;29;20063;-85
2022/02/17 09:56:46;;;;;;;12.63;2.88;;;;;;;6.71;79.74;97135.28;4839876;29;20526;-86
2022/02/17 10:03:16;;;;;;;13.23;3.13;;;;;;;7.12;78.97;97213.00;4838277;29;20040;-85
2022/02/17 10:06:26;;;;;;;13.20;3.25;;;;;;;7.13;78.71;97211.94;4839167;29;20509;-86
2022/02/17 10:08:52;;;;;;;12.18;2.88;;;;;;;6.93;78.33;97180.91;4836437;29;21103;-86
2022/02/17 10:14:34;;;;;;;8.43;2.53;;;;;;;7.06;77.29;97203.44;4847280;29;20038;-85
2022/02/17 10:20:53;;;;;;;12.80;4.00;;;;;;;6.79;76.33;97179.84;4833468;29;20050;-85
2022/02/17 10:23:49;;;;;;;;;;;;;;;;;;;;;
2022/02/17 10:26:31;;;;;;;15.73;3.45;;;;;;;6.91;76.06;97190.19;4841475;29;20026;-84
2022/02/17 10:29:21;;;;;;;24.73;3.42;;;;;;;7.21;76.76;97267.91;4840315;29;20026;-84
2022/02/17 10:32:31;;;;;;;12.80;3.55;;;;;;;6.94;77.28;97226.78;4834667;29;20040;-85
2022/02/17 10:35:33;;;;;;;13.98;3.28;;;;;;;7.37;76.98;97304.00;4803083;29;20052;-85
2022/02/17 10:38:52;;;;;;;;;;;;;;;;;;;;;
2022/02/17 10:45:01;;;;;;;;;;;;;;;;;;;;;
2022/02/17 10:48:07;;;;;;;12.70;3.45;;;;;;;7.31;79.75;97304.28;4839045;29;20036;-85
2022/02/17 10:51:31;;;;;;;8.25;2.67;;;;;;;6.87;79.30;97221.75;4851393;29;20034;-85
2022/02/17 10:54:10;;;;;;;7.25;2.75;;;;;;;6.85;79.12;97233.66;4801155;29;20031;-85
2022/02/17 10:58:05;;;;;;;;;;;;;;;;;;;;;
2022/02/17 11:01:30;;;;;;;;;;;;;;;;;;;;;
2022/02/17 11:04:07;;;;;;;;;;;;;;;;;;;;;
2022/02/17 11:10:07;;;;;;;;;;;;;;;;;;;;;
2022/02/17 11:13:01;;;;;;;9.85;2.55;;;;;;;6.56;76.20;97263.31;4805184;29;20058;-85
2022/02/17 11:19:46;;;;;;;8.27;2.40;;;;;;;6.58;75.83;97278.94;4844768;29;20087;-85
2022/02/17 11:21:57;;;;;;;12.30;2.22;;;;;;;6.91;75.35;97334.19;4835105;29;20189;-85
2022/02/17 11:24:23;;;;;;;4.53;1.92;;;;;;;6.77;75.92;97325.16;4837349;29;20033;-85
2022/02/17 11:27:01;;;;;;;6.25;2.35;;;;;;;6.96;76.26;97352.78;4832146;29;20037;-85
2022/02/17 11:29:36;;;;;;;10.27;3.03;;;;;;;6.62;75.59;97302.03;4839280;29;20029;-85
2022/02/17 11:32:04;;;;;;;7.07;2.13;;;;;;;6.77;76.17;97341.06;4838029;29;20079;-85
2022/02/17 11:34:44;;;;;;;11.25;2.47;;;;;;;6.96;75.10;97359.94;4823193;29;20539;-85
2022/02/17 11:37:30;;;;;;;7.20;2.80;;;;;;;6.96;76.24;97378.50;4837539;29;20045;-85
2022/02/17 11:40:20;;;;;;;9.98;2.28;;;;;;;6.93;75.64;97377.16;4840594;29;20087;-85
2022/02/17 11:43:00;;;;;;;7.75;2.40;;;;;;;6.95;75.08;97363.63;4840814;29;20049;-85
2022/02/17 11:45:26;;;;;;;11.38;2.25;;;;;;;7.04;75.17;97376.13;4852875;29;20410;-84
2022/02/17 11:48:12;;;;;;;9.55;2.70;;;;;;;7.04;74.79;97362.88;4824652;29;20043;-84
2022/02/17 11:50:48;;;;;;;9.23;1.98;;;;;;;6.92;74.70;97364.16;4840719;29;20061;-84
2022/02/17 11:53:40;;;;;;;15.98;3.55;;;;;;;7.18;74.42;97387.84;4841246;29;20580;-84
2022/02/17 11:56:06;;;;;;;14.90;2.95;;;;;;;7.26;74.04;97370.59;4829124;29;20021;-84
2022/02/17 11:58:47;;;;;;;10.25;2.00;;;;;;;7.28;73.73;97387.84;4843094;29;20124;-84
2022/02/17 12:01:22;;;;;;;10.60;1.83;;;;;;;7.42;73.03;97401.41;4843720;29;20117;-84
2022/02/17 12:04:01;;;;;;;7.38;2.33;;;;;;;7.48;72.74;97405.66;4856174;29;20462;-85
2022/02/17 12:06:45;;;;;;;9.75;2.42;;;;;;;7.52;72.07;97407.53;4838781;29;20509;-84
2022/02/17 12:09:37;;;;;;;8.75;2.42;;;;;;;7.55;71.70;97433.56;4843641;29;20033;-84
2022/02/17 12:12:15;;;;;;;8.05;1.95;;;;;;;7.65;71.27;97411.53;4820239;29;20130;-84
2022/02/17 12:14:51;;;;;;;8.35;2.75;;;;;;;7.71;72.21;97430.94;4841056;29;20521;-84
2022/02/17 12:17:28;;;;;;;7.25;1.80;;;;;;;7.76;71.36;97444.19;4838828;29;20034;-84
2022/02/17 12:20:28;;;;;;;4.60;1.60;;;;;;;7.87;71.63;97438.63;4840652;29;20045;-84
2022/02/17 12:23:06;;;;;;;9.25;2.53;;;;;;;7.90;70.31;97443.44;4828377;29;20403;-84
2022/02/17 12:25:36;;;;;;;8.25;2.20;;;;;;;7.90;69.42;97445.28;4843038;29;20033;-84
2022/02/17 12:28:06;;;;;;;8.25;2.80;;;;;;;7.96;69.01;97455.63;4844893;29;20123;-84
2022/02/17 12:30:52;;;;;;;4.93;2.03;;;;;;;7.94;69.72;97454.31;4849762;29;20061;-84
2022/02/17 12:33:17;;;;;;;11.63;1.95;;;;;;;7.99;68.82;97449.00;4831098;29;20091;-84
2022/02/17 12:35:44;;;;;;;7.97;2.58;;;;;;;8.03;69.07;97440.22;4855002;29;20439;-84
2022/02/17 12:38:12;;;;;;;3.92;1.77;;;;;;;7.94;69.22;97451.66;4842038;29;20113;-84
2022/02/17 12:40:40;;;;;;;5.97;2.17;;;;;;;8.07;69.23;97454.56;4841446;29;20062;-84
2022/02/17 12:43:06;;;;;;;1.85;1.67;;;;;;;8.09;68.57;97478.22;4841474;29;20042;-84
2022/02/17 12:45:37;;;;;;;5.20;1.80;;;;;;;8.10;68.31;97469.97;4843307;29;20042;-84